createdAt,value
2022-09-05T00:02:33.153Z,99487.72
2022-09-05T00:06:00.124Z,99488.66
2022-09-05T00:09:08.956Z,99482.63
2022-09-05T00:12:00.746Z,99474.88
2022-09-05T00:15:17.721Z,99471.38
2022-09-05T00:24:16.999Z,99479.19
2022-09-05T00:24:29.711Z,99480.94
2022-09-05T00:25:30.405Z,99473.19
2022-09-05T00:28:29.646Z,99476.66
2022-09-05T00:31:54.633Z,99472.28
2022-09-05T00:34:58.993Z,99465.38
2022-09-05T00:37:49.037Z,99451.63
2022-09-05T00:40:52.433Z,99462.81
2022-09-05T00:43:46.702Z,99438.72
2022-09-05T00:46:37.273Z,99445.69
2022-09-05T00:49:36.366Z,99458.63
2022-09-05T00:52:50.528Z,99436.28
2022-09-05T00:56:51.205Z,99469.06
2022-09-05T00:59:58.472Z,99475.19
2022-09-05T01:02:52.158Z,99469.16
2022-09-05T01:05:47.362Z,99468.28
2022-09-05T01:09:07.375Z,99472.59
2022-09-05T01:12:15.409Z,99451.91
2022-09-05T01:15:22.579Z,99450.19
2022-09-05T01:18:27.462Z,99451.94
2022-09-05T01:21:20.169Z,99457.97
2022-09-05T01:24:39.609Z,99446.69
2022-09-05T01:29:13.298Z,99449.28
2022-09-05T01:31:17.436Z,99425.16
2022-09-05T01:34:16.766Z,99439.81
2022-09-05T01:37:32.765Z,99419.97
2022-09-05T01:40:29.250Z,99422.53
2022-09-05T01:43:52.253Z,99408.78
2022-09-05T01:46:58.935Z,99426.06
2022-09-05T01:50:01.629Z,99451.16
2022-09-05T01:53:26.673Z,99454.63
2022-09-05T01:56:30.753Z,99452.06
2022-09-05T01:59:33.437Z,99433.94
2022-09-05T02:02:36.662Z,99446.88
2022-09-05T02:05:48.311Z,99446.88
2022-09-05T02:08:54.614Z,99445.16
2022-09-05T02:11:44.817Z,99418.41
2022-09-05T02:15:07.225Z,99452.09
2022-09-05T02:18:06.521Z,99434.84
2022-09-05T02:21:01.934Z,99434.84
2022-09-05T02:24:13.114Z,99447.78
2022-09-05T02:27:40.234Z,99442.59
2022-09-05T02:31:00.348Z,99430.53
2022-09-05T02:34:02.647Z,99440.03
2022-09-05T02:37:04.312Z,99443.50
2022-09-05T02:45:06.149Z,99440.03
2022-09-05T02:45:18.108Z,99443.47
2022-09-05T02:46:46.713Z,99452.16
2022-09-05T02:52:26.108Z,99444.38
2022-09-05T02:57:34.734Z,99437.47
2022-09-05T02:57:40.977Z,99446.97
2022-09-05T02:59:53.138Z,99435.75
2022-09-05T03:03:00.838Z,99446.19
2022-09-05T03:06:01.482Z,99433.25
2022-09-05T03:09:16.955Z,99432.31
2022-09-05T03:12:52.165Z,99434.06
2022-09-05T03:16:22.143Z,99357.22
2022-09-05T03:19:31.156Z,99407.34
2022-09-05T03:22:37.378Z,99435.81
2022-09-05T03:25:56.011Z,99441.00
2022-09-05T03:29:16.433Z,99423.75
2022-09-05T03:32:24.627Z,99441.91
2022-09-05T03:35:29.851Z,99441.06
2022-09-05T03:38:47.268Z,99444.50
2022-09-05T03:42:15.201Z,99423.78
2022-09-05T03:45:34.955Z,99446.25
2022-09-05T03:48:42.202Z,99442.78
2022-09-05T03:57:07.415Z,99446.25
2022-09-05T03:57:18.178Z,99450.59
2022-09-05T03:58:56.007Z,99446.28
2022-09-05T04:04:54.896Z,99445.41
2022-09-05T04:08:15.369Z,99422.94
2022-09-05T04:08:41.953Z,99415.19
2022-09-05T04:11:39.042Z,99442.84
2022-09-05T04:14:27.683Z,99441.97
2022-09-05T04:17:37.202Z,99409.13
2022-09-05T04:21:01.540Z,99448.88
2022-09-05T04:24:15.648Z,99447.13
2022-09-05T04:27:13.273Z,99400.50
2022-09-05T04:30:39.639Z,99444.56
2022-09-05T04:33:36.280Z,99444.56
2022-09-05T04:36:28.948Z,99449.75
2022-09-05T04:39:18.498Z,99448.91
2022-09-05T04:42:04.976Z,99453.22
2022-09-05T04:45:08.355Z,99454.09
2022-09-05T04:48:00.123Z,99404.00
2022-09-05T04:51:04.543Z,99456.66
2022-09-05T04:53:55.465Z,99456.66
2022-09-05T04:56:49.140Z,99453.19
2022-09-05T05:02:59.729Z,99438.50
2022-09-05T05:06:09.243Z,99462.69
2022-09-05T05:06:37.895Z,99444.53
2022-09-05T05:09:39.205Z,99466.97
2022-09-05T05:17:56.693Z,99494.56
2022-09-05T05:17:56.859Z,99479.00
2022-09-05T05:19:18.853Z,99484.06
2022-09-05T05:22:14.750Z,99448.59
2022-09-05T05:25:01.891Z,99471.84
2022-09-05T05:28:14.981Z,99492.59
2022-09-05T05:31:18.395Z,99489.09
2022-09-05T05:34:23.966Z,99479.59
2022-09-05T05:37:26.954Z,99493.34
2022-09-05T05:40:16.382Z,99498.38
2022-09-05T05:43:18.941Z,99463.78
2022-09-05T05:46:08.278Z,99486.16
2022-09-05T05:49:07.903Z,99502.50
2022-09-05T05:52:03.692Z,99481.72
2022-09-05T05:55:27.103Z,99508.44
2022-09-05T05:58:15.721Z,99504.88
2022-09-05T06:01:32.933Z,99503.94
2022-09-05T06:04:49.087Z,99509.06
2022-09-05T06:09:11.398Z,99503.78
2022-09-05T06:14:57.129Z,99513.25
2022-09-05T06:15:11.531Z,99509.56
2022-09-05T06:18:37.193Z,99515.56
2022-09-05T06:22:09.627Z,99502.38
2022-09-05T06:25:17.546Z,99500.44
2022-09-05T06:28:35.308Z,99504.63
2022-09-05T06:31:29.993Z,99508.88
2022-09-05T06:34:45.102Z,99513.25
2022-09-05T06:37:54.421Z,99511.38
2022-09-05T06:41:02.139Z,99504.22
2022-09-05T06:43:51.484Z,99507.47
2022-09-05T06:46:54.332Z,99511.66
2022-09-05T06:50:24.434Z,99508.75
2022-09-05T06:53:26.240Z,99513.81
2022-09-05T06:56:26.201Z,99505.81
2022-09-05T06:59:49.906Z,99519.47
2022-09-05T07:03:00.231Z,99494.94
2022-09-05T07:06:07.471Z,99509.22
2022-09-05T07:09:01.485Z,99492.72
2022-09-05T07:12:08.969Z,99434.78
2022-09-05T07:15:10.162Z,99485.34
2022-09-05T07:18:54.421Z,99503.59
2022-09-05T07:22:47.813Z,99483.59
2022-09-05T07:25:44.404Z,99487.59
2022-09-05T07:28:31.706Z,99472.63
2022-09-05T07:31:26.356Z,99496.34
2022-09-05T07:34:32.115Z,99489.69
2022-09-05T07:37:25.658Z,99495.16
2022-09-05T07:40:26.164Z,99490.47
2022-09-05T07:43:22.386Z,99473.16
2022-09-05T07:46:19.954Z,99480.81
2022-09-05T07:49:14.475Z,99495.16
2022-09-05T07:56:50.806Z,99505.66
2022-09-05T07:56:54.863Z,99499.22
2022-09-05T07:58:49.962Z,99504.53
2022-09-05T08:01:42.333Z,99500.84
2022-09-05T08:04:34.993Z,99502.81
2022-09-05T08:07:47.249Z,99511.16
2022-09-05T08:11:22.364Z,99511.16
2022-09-05T08:14:43.693Z,99496.91
2022-09-05T08:17:10.608Z,99504.13
2022-09-05T08:20:17.327Z,99506.50
2022-09-05T08:23:30.473Z,99490.00
2022-09-05T08:26:29.246Z,99495.66
2022-09-05T08:29:36.874Z,99489.81
2022-09-05T08:32:49.629Z,99486.81
2022-09-05T08:35:56.157Z,99481.84
2022-09-05T08:38:47.474Z,99469.53
2022-09-05T08:41:51.137Z,99496.84
2022-09-05T08:46:41.809Z,99448.94
2022-09-05T08:47:58.515Z,99493.91
2022-09-05T08:50:51.069Z,99496.78
2022-09-05T08:54:03.318Z,99489.28
2022-09-05T08:57:10.199Z,99493.97
2022-09-05T09:00:20.124Z,99484.25
2022-09-05T09:03:14.303Z,99477.44
2022-09-05T09:06:36.643Z,99480.91
2022-09-05T09:09:41.229Z,99478.31
2022-09-05T09:12:59.415Z,99469.09
2022-09-05T09:15:45.817Z,99478.03
2022-09-05T09:18:59.203Z,99467.19
2022-09-05T09:21:58.208Z,99473.09
2022-09-05T09:25:12.060Z,99476.78
2022-09-05T09:28:50.590Z,99468.75
2022-09-05T09:31:52.178Z,99470.28
2022-09-05T09:34:59.770Z,99439.63
2022-09-05T09:38:06.827Z,99454.16
2022-09-05T09:41:05.452Z,99467.22
2022-09-05T09:44:26.365Z,99458.88
2022-09-05T09:47:17.141Z,99459.78
2022-09-05T09:50:19.323Z,99458.81
2022-09-05T09:53:14.288Z,99460.09
2022-09-05T09:56:40.611Z,99459.25
2022-09-05T10:00:04.356Z,99434.41
2022-09-05T10:10:09.941Z,99459.34
2022-09-05T10:10:51.623Z,99455.50
2022-09-05T10:11:09.345Z,99458.69
2022-09-05T10:13:21.341Z,99451.06
2022-09-05T10:16:26.604Z,99422.44
2022-09-05T10:23:15.658Z,99438.50
2022-09-05T10:26:39.761Z,99442.34
2022-09-05T10:29:43.631Z,99438.91
2022-09-05T10:35:06.118Z,99423.72
2022-09-05T10:35:51.431Z,99411.22
2022-09-05T10:38:45.022Z,99378.66
2022-09-05T10:41:49.160Z,99409.53
2022-09-05T10:44:40.551Z,99419.16
2022-09-05T10:47:48.234Z,99400.41
2022-09-05T10:51:00.609Z,99362.69
2022-09-05T10:54:24.039Z,99399.81
2022-09-05T10:57:20.495Z,99399.53
2022-09-05T11:02:20.027Z,99400.88
2022-09-05T11:03:32.273Z,99399.81
2022-09-05T11:06:25.949Z,99391.38
2022-09-05T11:09:56.125Z,99388.72
2022-09-05T11:12:58.523Z,99372.06
2022-09-05T11:16:04.877Z,99388.00
2022-09-05T11:19:04.435Z,99379.63
2022-09-05T11:22:24.056Z,99382.28
2022-09-05T11:25:36.140Z,99361.50
2022-09-05T11:29:00.261Z,99381.72
2022-09-05T11:36:41.533Z,99385.53
2022-09-05T11:39:53.547Z,99382.06
2022-09-05T11:40:10.061Z,99376.13
2022-09-05T11:41:58.233Z,99379.41
2022-09-05T11:45:05.984Z,99371.41
2022-09-05T11:48:24.556Z,99333.91
2022-09-05T11:51:33.888Z,99381.25
2022-09-05T11:54:57.995Z,99366.78
2022-09-05T11:58:44.071Z,99364.72
2022-09-05T12:01:42.990Z,99365.09
2022-09-05T12:05:47.315Z,99361.47
2022-09-05T12:08:31.202Z,99347.69
2022-09-05T12:11:43.386Z,99357.78
2022-09-05T12:14:55.094Z,99353.09
2022-09-05T12:18:19.133Z,99359.00
2022-09-05T12:22:08.786Z,99344.31
2022-09-05T12:27:35.981Z,99327.41
2022-09-05T12:33:30.763Z,99326.59
2022-09-05T12:36:10.819Z,99327.69
2022-09-05T12:40:56.916Z,99319.34
2022-09-05T12:41:41.809Z,99296.31
2022-09-05T12:42:08.531Z,99294.22
2022-09-05T12:45:18.800Z,99317.75
2022-09-05T12:48:12.784Z,99329.41
2022-09-05T12:51:10.479Z,99296.72
2022-09-05T12:54:00.707Z,99279.56
2022-09-05T12:58:37.293Z,99285.66
2022-09-05T13:03:05.818Z,99304.25
2022-09-05T13:03:40.756Z,99313.00
2022-09-05T13:06:39.052Z,99306.13
2022-09-05T13:10:35.180Z,99304.44
2022-09-05T13:14:54.909Z,99278.00
2022-09-05T13:15:56.773Z,99295.44
2022-09-05T13:18:44.217Z,99305.41
2022-09-05T13:21:31.456Z,99296.50
2022-09-05T13:24:27.738Z,99273.88
2022-09-05T13:27:20.588Z,99285.72
2022-09-05T13:34:46.486Z,99266.56
2022-09-05T13:38:02.273Z,99260.03
2022-09-05T13:38:17.982Z,99261.97
2022-09-05T13:39:48.139Z,99280.50
2022-09-05T13:42:40.570Z,99284.91
2022-09-05T13:45:29.672Z,99273.59
2022-09-05T13:48:27.514Z,99271.22
2022-09-05T13:51:36.622Z,99270.53
2022-09-05T13:54:48.897Z,99266.28
2022-09-05T13:57:46.304Z,99264.91
2022-09-05T14:00:35.407Z,99265.06
2022-09-05T14:03:46.757Z,99264.41
2022-09-05T14:06:48.905Z,99269.56
2022-09-05T14:10:10.282Z,99254.06
2022-09-05T14:13:19.234Z,99215.63
2022-09-05T14:16:18.130Z,99251.34
2022-09-05T14:19:37.607Z,99225.19
2022-09-05T14:22:53.896Z,99247.47
2022-09-05T14:25:44.709Z,99242.47
2022-09-05T14:28:40.782Z,99223.59
2022-09-05T14:37:51.716Z,99245.66
2022-09-05T14:37:54.763Z,99232.53
2022-09-05T14:38:56.459Z,99210.59
2022-09-05T14:42:09.362Z,99237.47
2022-09-05T14:45:31.029Z,99200.94
2022-09-05T14:48:43.127Z,99205.41
2022-09-05T14:51:34.833Z,99222.38
2022-09-05T15:02:43.339Z,99193.53
2022-09-05T15:02:52.715Z,99191.06
2022-09-05T15:07:23.111Z,99189.28
2022-09-05T15:12:14.023Z,99209.91
2022-09-05T15:13:27.920Z,99168.44
2022-09-05T15:16:15.500Z,99172.16
2022-09-05T15:19:02.082Z,99165.16
2022-09-05T15:21:48.937Z,99183.53
2022-09-05T15:24:35.293Z,99181.94
2022-09-05T15:27:28.962Z,99158.13
2022-09-05T15:30:36.549Z,99149.34
2022-09-05T15:33:26.300Z,99178.03
2022-09-05T15:36:14.430Z,99156.84
2022-09-05T15:39:21.977Z,99178.56
2022-09-05T15:42:21.279Z,99154.19
2022-09-05T15:45:12.397Z,99177.59
2022-09-05T15:48:09.355Z,99144.31
2022-09-05T15:51:03.146Z,99125.91
2022-09-05T15:53:51.622Z,99170.47
2022-09-05T15:56:47.585Z,99142.72
2022-09-05T15:59:47.251Z,99161.44
2022-09-05T16:02:38.412Z,99160.78
2022-09-05T16:10:26.723Z,99141.66
2022-09-05T16:10:57.945Z,99167.28
2022-09-05T16:15:40.773Z,99121.59
2022-09-05T16:23:24.620Z,99127.75
2022-09-05T16:23:28.690Z,99133.06
2022-09-05T16:24:58.945Z,99148.16
2022-09-05T16:27:56.139Z,99151.66
2022-09-05T16:30:42.522Z,99146.31
2022-09-05T16:33:33.318Z,99130.09
2022-09-05T16:37:07.795Z,99150.00
2022-09-05T16:40:05.513Z,99145.00
2022-09-05T16:42:57.724Z,99137.63
2022-09-05T16:45:54.095Z,99147.41
2022-09-05T16:49:15.891Z,99089.66
2022-09-05T16:52:06.763Z,99128.84
2022-09-05T16:55:28.982Z,99117.78
2022-09-05T16:58:25.827Z,99131.88
2022-09-05T17:01:32.183Z,99131.16
2022-09-05T17:04:25.754Z,99097.13
2022-09-05T17:07:30.618Z,99121.34
2022-09-05T17:10:20.451Z,99099.91
2022-09-05T17:13:11.846Z,99104.19
2022-09-05T17:16:05.412Z,99126.13
2022-09-05T17:18:53.532Z,99112.38
2022-09-05T17:27:31.829Z,99109.41
2022-09-05T17:29:25.040Z,99105.06
2022-09-05T17:29:35.289Z,99100.09
2022-09-05T17:34:15.428Z,99127.06
2022-09-05T17:37:34.602Z,99119.00
2022-09-05T17:40:45.474Z,99125.56
2022-09-05T17:43:38.548Z,99121.44
2022-09-05T17:46:31.787Z,99128.84
2022-09-05T17:49:43.120Z,99132.88
2022-09-05T17:52:29.602Z,99119.50
2022-09-05T17:55:17.445Z,99118.47
2022-09-05T17:58:26.871Z,99124.53
2022-09-05T18:01:27.183Z,99114.50
2022-09-05T18:04:48.391Z,99135.19
2022-09-05T18:07:42.800Z,99138.72
2022-09-05T18:11:01.095Z,99138.09
2022-09-05T18:13:53.772Z,99143.50
2022-09-05T18:17:35.226Z,99143.94
2022-09-05T18:20:19.785Z,99135.06
2022-09-05T18:23:39.705Z,99142.41
2022-09-05T18:26:27.635Z,99144.69
2022-09-05T18:29:58.272Z,99104.97
2022-09-05T18:32:54.222Z,99155.88
2022-09-05T18:35:59.494Z,99154.94
2022-09-05T18:38:51.822Z,99153.72
2022-09-05T18:41:41.799Z,99157.84
2022-09-05T18:44:35.412Z,99118.63
2022-09-05T18:47:52.811Z,99134.78
2022-09-05T18:50:46.415Z,99128.06
2022-09-05T18:53:34.656Z,99136.75
2022-09-05T18:57:12.115Z,99116.16
2022-09-05T18:59:53.503Z,99155.91
2022-09-05T19:02:59.069Z,99141.03
2022-09-05T19:05:49.191Z,99165.31
2022-09-05T19:08:58.333Z,99183.72
2022-09-05T19:12:33.518Z,99147.22
2022-09-05T19:15:16.442Z,99170.88
2022-09-05T19:18:36.971Z,99189.47
2022-09-05T19:21:23.595Z,99154.59
2022-09-05T19:24:20.915Z,99178.81
2022-09-05T19:29:44.488Z,99197.97
2022-09-05T19:36:45.970Z,99194.78
2022-09-05T19:37:09.040Z,99167.94
2022-09-05T19:45:29.217Z,99176.03
2022-09-05T19:47:34.075Z,99186.78
2022-09-05T19:47:41.868Z,99184.41
2022-09-05T19:49:33.309Z,99170.72
2022-09-05T19:52:20.043Z,99154.75
2022-09-05T19:55:24.220Z,99156.63
2022-09-05T19:58:20.967Z,99152.31
2022-09-05T20:01:15.790Z,99143.00
2022-09-05T20:04:07.135Z,99137.22
2022-09-05T20:06:53.822Z,99122.66
2022-09-05T20:09:46.974Z,99128.66
2022-09-05T20:12:34.670Z,99128.75
2022-09-05T20:15:43.658Z,99137.50
2022-09-05T20:18:40.642Z,99123.13
2022-09-05T20:21:30.442Z,99133.53
2022-09-05T20:24:18.754Z,99138.19
2022-09-05T20:27:05.326Z,99135.00
2022-09-05T20:29:59.730Z,99140.47
2022-09-05T20:32:54.034Z,99072.03
2022-09-05T20:40:05.454Z,99106.75
2022-09-05T20:43:14.578Z,99133.56
2022-09-05T20:43:16.113Z,99143.06
2022-09-05T20:45:43.407Z,99146.06
2022-09-05T20:54:05.271Z,99151.47
2022-09-05T20:54:15.236Z,99126.00
2022-09-05T20:54:57.280Z,99155.28
2022-09-05T20:57:44.103Z,99127.00
2022-09-05T21:00:33.694Z,99152.91
2022-09-05T21:03:28.722Z,99131.44
2022-09-05T21:06:33.424Z,99152.19
2022-09-05T21:09:24.877Z,99152.19
2022-09-05T21:12:12.682Z,99133.31
2022-09-05T21:15:26.974Z,99149.78
2022-09-05T21:18:34.000Z,99156.91
2022-09-05T21:21:41.046Z,99152.66
2022-09-05T21:24:27.867Z,99122.00
2022-09-05T21:27:21.784Z,99150.50
2022-09-05T21:30:23.531Z,99125.00
2022-09-05T21:33:21.660Z,99156.97
2022-09-05T21:36:19.596Z,99134.84
2022-09-05T21:39:05.989Z,99152.81
2022-09-05T21:41:55.992Z,99127.22
2022-09-05T21:47:41.630Z,99155.63
2022-09-05T21:48:03.566Z,99105.84
2022-09-05T21:50:52.999Z,99148.09
2022-09-05T21:59:14.385Z,99133.44
2022-09-05T21:59:18.646Z,99101.13
2022-09-05T22:00:11.224Z,99122.69
2022-09-05T22:03:04.906Z,99108.19
2022-09-05T22:06:15.821Z,99126.47
2022-09-05T22:09:13.075Z,99143.69
2022-09-05T22:12:00.478Z,99138.75
2022-09-05T22:15:29.165Z,99151.81
2022-09-05T22:18:17.593Z,99118.38
2022-09-05T22:21:33.292Z,99100.25
2022-09-05T22:24:14.453Z,99128.66
2022-09-05T22:27:12.190Z,99123.47
2022-09-05T22:29:59.114Z,99125.41
2022-09-05T22:32:45.474Z,99119.38
2022-09-05T22:35:37.024Z,99129.69
2022-09-05T22:38:23.531Z,99098.00
2022-09-05T22:41:11.276Z,99088.66
2022-09-05T22:43:59.270Z,99130.94
2022-09-05T22:46:45.845Z,99114.72
2022-09-05T22:49:32.286Z,99079.59
2022-09-05T22:52:18.518Z,99089.00
2022-09-05T22:55:05.517Z,99089.72
2022-09-05T22:57:51.705Z,99120.78
2022-09-05T23:00:38.434Z,99101.13
2022-09-05T23:03:24.716Z,99076.47
2022-09-05T23:06:11.154Z,99130.47
2022-09-05T23:08:57.346Z,99097.78
2022-09-05T23:11:43.768Z,99084.25
2022-09-05T23:14:29.943Z,99125.41
2022-09-05T23:17:16.694Z,99080.00
2022-09-05T23:20:05.012Z,99120.41
2022-09-05T23:22:51.580Z,99114.44
2022-09-05T23:25:37.860Z,99081.00
2022-09-05T23:28:24.592Z,99106.88
2022-09-05T23:31:12.078Z,99106.16
2022-09-05T23:33:59.013Z,99117.25
2022-09-05T23:36:45.561Z,99117.41
2022-09-05T23:39:31.982Z,99088.09
2022-09-05T23:42:18.674Z,99110.53
2022-09-05T23:45:06.888Z,99101.91
2022-09-05T23:47:53.352Z,99109.66
2022-09-05T23:50:39.773Z,99064.19
2022-09-05T23:53:26.750Z,99102.03
2022-09-05T23:56:13.155Z,99102.13
2022-09-05T23:58:59.741Z,99052.34
